sensor_id;sensor_type;location;lat;lon;timestamp;pressure;altitude;pressure_sealevel;temperature;humidity
31044;BME280;17710;52.520;13.352;2022-08-19T00:01:13;100612.19;;;27.24;57.96
31044;BME280;17710;52.520;13.352;2022-08-19T00:03:39;100611.63;;;26.96;59.17
31044;BME280;17710;52.520;13.352;2022-08-19T00:06:06;100612.19;;;26.82;59.72
31044;BME280;17710;52.520;13.352;2022-08-19T00:08:33;100619.38;;;26.91;59.80
31044;BME280;17710;52.520;13.352;2022-08-19T00:11:00;100613.72;;;26.85;59.87
31044;BME280;17710;52.520;13.352;2022-08-19T00:13:26;100623.28;;;26.89;59.38
31044;BME280;17710;52.520;13.352;2022-08-19T00:15:53;100616.06;;;26.80;60.08
31044;BME280;17710;52.520;13.352;2022-08-19T00:18:20;100611.81;;;27.11;59.09
31044;BME280;17710;52.520;13.352;2022-08-19T00:20:46;100618.34;;;27.34;58.04
31044;BME280;17710;52.520;13.352;2022-08-19T00:23:13;100628.66;;;27.23;58.29
31044;BME280;17710;52.520;13.352;2022-08-19T00:25:41;100626.13;;;27.29;58.17
31044;BME280;17710;52.520;13.352;2022-08-19T00:28:07;100619.13;;;27.69;56.96
31044;BME280;17710;52.520;13.352;2022-08-19T00:30:34;100623.03;;;27.91;56.59
31044;BME280;17710;52.520;13.352;2022-08-19T00:33:00;100621.50;;;28.04;55.86
31044;BME280;17710;52.520;13.352;2022-08-19T00:35:27;100618.13;;;27.94;55.52
31044;BME280;17710;52.520;13.352;2022-08-19T00:37:53;100631.56;;;27.29;57.74
31044;BME280;17710;52.520;13.352;2022-08-19T00:40:20;100623.25;;;27.31;57.54
31044;BME280;17710;52.520;13.352;2022-08-19T00:42:48;100616.94;;;27.14;58.36
31044;BME280;17710;52.520;13.352;2022-08-19T00:45:23;100616.22;;;27.04;58.04
31044;BME280;17710;52.520;13.352;2022-08-19T00:47:50;100602.72;;;27.28;57.07
31044;BME280;17710;52.520;13.352;2022-08-19T00:50:18;100601.66;;;27.55;56.16
31044;BME280;17710;52.520;13.352;2022-08-19T00:52:47;100603.88;;;27.76;55.55
31044;BME280;17710;52.520;13.352;2022-08-19T00:55:19;100608.47;;;27.75;55.75
31044;BME280;17710;52.520;13.352;2022-08-19T00:57:50;100604.19;;;27.73;55.25
31044;BME280;17710;52.520;13.352;2022-08-19T01:00:19;100607.94;;;27.96;55.04
31044;BME280;17710;52.520;13.352;2022-08-19T01:02:45;100608.78;;;27.81;55.34
31044;BME280;17710;52.520;13.352;2022-08-19T01:05:15;100613.19;;;27.90;55.63
31044;BME280;17710;52.520;13.352;2022-08-19T01:07:43;100616.94;;;28.05;56.32
31044;BME280;17710;52.520;13.352;2022-08-19T01:10:19;100606.59;;;28.00;56.33
31044;BME280;17710;52.520;13.352;2022-08-19T01:12:47;100612.03;;;27.76;56.52
31044;BME280;17710;52.520;13.352;2022-08-19T01:15:17;100617.44;;;27.84;55.81
31044;BME280;17710;52.520;13.352;2022-08-19T01:17:46;100617.09;;;27.71;56.81
31044;BME280;17710;52.520;13.352;2022-08-19T01:20:17;100623.88;;;27.67;56.54
31044;BME280;17710;52.520;13.352;2022-08-19T01:22:47;100625.03;;;27.64;57.82
31044;BME280;17710;52.520;13.352;2022-08-19T01:25:14;100628.13;;;27.61;57.70
31044;BME280;17710;52.520;13.352;2022-08-19T01:27:43;100629.16;;;27.68;57.59
31044;BME280;17710;52.520;13.352;2022-08-19T01:30:14;100626.59;;;27.75;57.34
31044;BME280;17710;52.520;13.352;2022-08-19T01:32:41;100629.84;;;27.87;56.86
31044;BME280;17710;52.520;13.352;2022-08-19T01:35:09;100636.81;;;27.89;57.12
31044;BME280;17710;52.520;13.352;2022-08-19T01:37:46;100641.03;;;27.84;57.56
31044;BME280;17710;52.520;13.352;2022-08-19T01:40:13;100646.31;;;27.93;56.72
31044;BME280;17710;52.520;13.352;2022-08-19T01:42:40;100641.03;;;27.75;57.62
31044;BME280;17710;52.520;13.352;2022-08-19T01:45:07;100632.88;;;27.92;57.33
31044;BME280;17710;52.520;13.352;2022-08-19T01:47:34;100642.03;;;27.91;57.40
31044;BME280;17710;52.520;13.352;2022-08-19T01:50:02;100636.78;;;27.97;56.71
31044;BME280;17710;52.520;13.352;2022-08-19T01:52:28;100640.00;;;27.85;56.94
31044;BME280;17710;52.520;13.352;2022-08-19T01:54:56;100639.50;;;27.73;57.95
31044;BME280;17710;52.520;13.352;2022-08-19T01:57:23;100659.53;;;27.80;58.00
31044;BME280;17710;52.520;13.352;2022-08-19T01:59:49;100655.78;;;27.73;58.27
31044;BME280;17710;52.520;13.352;2022-08-19T02:02:16;100651.03;;;27.17;60.69
31044;BME280;17710;52.520;13.352;2022-08-19T02:04:43;100658.00;;;26.93;60.14
31044;BME280;17710;52.520;13.352;2022-08-19T02:07:13;100641.44;;;26.96;59.94
31044;BME280;17710;52.520;13.352;2022-08-19T02:09:39;100638.31;;;27.17;59.79
31044;BME280;17710;52.520;13.352;2022-08-19T02:12:07;100625.75;;;27.16;59.84
31044;BME280;17710;52.520;13.352;2022-08-19T02:14:34;100610.50;;;27.15;59.89
31044;BME280;17710;52.520;13.352;2022-08-19T02:17:01;100591.19;;;27.26;59.88
31044;BME280;17710;52.520;13.352;2022-08-19T02:19:27;100575.59;;;26.52;61.38
31044;BME280;17710;52.520;13.352;2022-08-19T02:21:54;100552.41;;;26.50;62.13
31044;BME280;17710;52.520;13.352;2022-08-19T02:24:20;100529.94;;;26.66;62.19
31044;BME280;17710;52.520;13.352;2022-08-19T02:26:47;100529.41;;;26.96;60.62
31044;BME280;17710;52.520;13.352;2022-08-19T02:29:14;100526.22;;;26.67;61.67
31044;BME280;17710;52.520;13.352;2022-08-19T02:31:41;100511.38;;;26.19;63.04
31044;BME280;17710;52.520;13.352;2022-08-19T02:34:07;100524.41;;;26.41;62.22
31044;BME280;17710;52.520;13.352;2022-08-19T02:36:34;100525.41;;;25.89;63.73
31044;BME280;17710;52.520;13.352;2022-08-19T02:39:00;100535.06;;;25.65;64.54
31044;BME280;17710;52.520;13.352;2022-08-19T02:41:28;100524.66;;;25.78;64.31
31044;BME280;17710;52.520;13.352;2022-08-19T02:43:57;100531.66;;;25.89;64.09
31044;BME280;17710;52.520;13.352;2022-08-19T02:46:28;100515.97;;;26.18;63.85
31044;BME280;17710;52.520;13.352;2022-08-19T02:48:57;100526.56;;;26.30;62.94
31044;BME280;17710;52.520;13.352;2022-08-19T02:51:26;100515.22;;;26.08;62.79
31044;BME280;17710;52.520;13.352;2022-08-19T02:53:53;100509.81;;;26.08;62.80
31044;BME280;17710;52.520;13.352;2022-08-19T02:56:20;100528.28;;;26.13;62.37
31044;BME280;17710;52.520;13.352;2022-08-19T02:58:47;100535.91;;;26.35;61.89
31044;BME280;17710;52.520;13.352;2022-08-19T03:01:20;100543.91;;;26.45;61.46
31044;BME280;17710;52.520;13.352;2022-08-19T03:03:48;100552.06;;;26.53;61.24
31044;BME280;17710;52.520;13.352;2022-08-19T03:06:16;100544.53;;;26.73;60.72
31044;BME280;17710;52.520;13.352;2022-08-19T03:08:46;100543.97;;;26.61;60.74
31044;BME280;17710;52.520;13.352;2022-08-19T03:11:15;100541.22;;;26.53;60.70
31044;BME280;17710;52.520;13.352;2022-08-19T03:13:41;100539.25;;;26.63;60.50
31044;BME280;17710;52.520;13.352;2022-08-19T03:16:09;100543.06;;;26.44;60.80
31044;BME280;17710;52.520;13.352;2022-08-19T03:18:36;100552.91;;;26.53;60.66
31044;BME280;17710;52.520;13.352;2022-08-19T03:21:04;100547.25;;;26.65;60.78
31044;BME280;17710;52.520;13.352;2022-08-19T03:23:31;100533.41;;;26.84;60.23
31044;BME280;17710;52.520;13.352;2022-08-19T03:25:57;100525.75;;;26.71;59.96
31044;BME280;17710;52.520;13.352;2022-08-19T03:28:23;100529.94;;;26.57;60.74
31044;BME280;17710;52.520;13.352;2022-08-19T03:30:58;100535.81;;;26.53;60.74
31044;BME280;17710;52.520;13.352;2022-08-19T03:33:25;100533.66;;;26.56;60.83
31044;BME280;17710;52.520;13.352;2022-08-19T03:36:04;100522.97;;;26.55;61.11
31044;BME280;17710;52.520;13.352;2022-08-19T03:38:33;100524.41;;;26.75;60.69
31044;BME280;17710;52.520;13.352;2022-08-19T03:41:02;100519.28;;;26.72;60.69
31044;BME280;17710;52.520;13.352;2022-08-19T03:43:32;100518.34;;;26.47;61.04
31044;BME280;17710;52.520;13.352;2022-08-19T03:46:02;100521.28;;;26.62;61.12
31044;BME280;17710;52.520;13.352;2022-08-19T03:48:30;100524.72;;;26.72;60.69
31044;BME280;17710;52.520;13.352;2022-08-19T03:50:57;100532.94;;;26.54;61.02
31044;BME280;17710;52.520;13.352;2022-08-19T03:53:26;100532.59;;;26.49;60.60
31044;BME280;17710;52.520;13.352;2022-08-19T03:55:53;100535.81;;;26.53;60.80
31044;BME280;17710;52.520;13.352;2022-08-19T03:58:19;100535.09;;;26.17;61.52
31044;BME280;17710;52.520;13.352;2022-08-19T04:00:46;100535.53;;;26.30;61.53
31044;BME280;17710;52.520;13.352;2022-08-19T04:03:12;100528.31;;;25.95;62.17
31044;BME280;17710;52.520;13.352;2022-08-19T04:05:38;100527.16;;;26.24;61.80
31044;BME280;17710;52.520;13.352;2022-08-19T04:08:05;100521.84;;;26.14;62.11
31044;BME280;17710;52.520;13.352;2022-08-19T04:10:35;100530.41;;;26.01;62.60
31044;BME280;17710;52.520;13.352;2022-08-19T04:13:02;100524.47;;;26.24;61.72
31044;BME280;17710;52.520;13.352;2022-08-19T04:15:29;100522.31;;;26.27;61.80
31044;BME280;17710;52.520;13.352;2022-08-19T04:17:58;100526.72;;;26.28;61.20
31044;BME280;17710;52.520;13.352;2022-08-19T04:20:24;100528.06;;;26.24;61.80
31044;BME280;17710;52.520;13.352;2022-08-19T04:22:51;100538.75;;;26.34;61.37
31044;BME280;17710;52.520;13.352;2022-08-19T04:25:17;100544.75;;;26.45;61.02
31044;BME280;17710;52.520;13.352;2022-08-19T04:27:45;100548.25;;;26.64;60.51
31044;BME280;17710;52.520;13.352;2022-08-19T04:30:12;100554.34;;;26.32;60.69
31044;BME280;17710;52.520;13.352;2022-08-19T04:32:39;100562.81;;;26.63;60.42
31044;BME280;17710;52.520;13.352;2022-08-19T04:35:06;100556.06;;;26.75;59.72
31044;BME280;17710;52.520;13.352;2022-08-19T04:37:33;100547.56;;;26.95;59.35
31044;BME280;17710;52.520;13.352;2022-08-19T04:39:59;100550.34;;;26.78;59.38
31044;BME280;17710;52.520;13.352;2022-08-19T04:42:45;100537.06;;;26.67;59.50
31044;BME280;17710;52.520;13.352;2022-08-19T04:45:13;100541.44;;;26.59;59.65
31044;BME280;17710;52.520;13.352;2022-08-19T04:47:42;100548.28;;;26.80;59.50
31044;BME280;17710;52.520;13.352;2022-08-19T04:50:08;100544.50;;;26.90;59.61
31044;BME280;17710;52.520;13.352;2022-08-19T04:52:37;100552.31;;;27.02;58.94
31044;BME280;17710;52.520;13.352;2022-08-19T04:55:08;100552.63;;;26.98;58.38
31044;BME280;17710;52.520;13.352;2022-08-19T04:57:35;100555.84;;;26.94;58.25
31044;BME280;17710;52.520;13.352;2022-08-19T05:00:08;100552.81;;;27.05;58.30
31044;BME280;17710;52.520;13.352;2022-08-19T05:02:35;100553.84;;;27.04;58.40
31044;BME280;17710;52.520;13.352;2022-08-19T05:05:02;100545.53;;;26.98;58.53
31044;BME280;17710;52.520;13.352;2022-08-19T05:07:28;100544.03;;;26.69;58.84
31044;BME280;17710;52.520;13.352;2022-08-19T05:09:56;100545.34;;;26.91;58.63
31044;BME280;17710;52.520;13.352;2022-08-19T05:12:22;100533.84;;;26.97;58.63
31044;BME280;17710;52.520;13.352;2022-08-19T05:14:49;100529.94;;;27.08;58.03
31044;BME280;17710;52.520;13.352;2022-08-19T05:17:18;100536.69;;;26.95;58.35
31044;BME280;17710;52.520;13.352;2022-08-19T05:19:44;100526.56;;;27.06;58.54
31044;BME280;17710;52.520;13.352;2022-08-19T05:22:28;100527.63;;;27.45;57.49
31044;BME280;17710;52.520;13.352;2022-08-19T05:25:03;100522.75;;;27.73;57.01
31044;BME280;17710;52.520;13.352;2022-08-19T05:27:30;100522.06;;;27.87;56.10
31044;BME280;17710;52.520;13.352;2022-08-19T05:29:57;100525.75;;;28.10;55.52
31044;BME280;17710;52.520;13.352;2022-08-19T05:32:25;100528.53;;;28.02;55.50
31044;BME280;17710;52.520;13.352;2022-08-19T05:34:52;100520.69;;;27.99;55.08
31044;BME280;17710;52.520;13.352;2022-08-19T05:37:18;100514.44;;;28.15;55.28
31044;BME280;17710;52.520;13.352;2022-08-19T05:39:45;100522.69;;;28.30;54.41
31044;BME280;17710;52.520;13.352;2022-08-19T05:42:12;100520.53;;;28.09;54.50
31044;BME280;17710;52.520;13.352;2022-08-19T05:44:39;100514.91;;;28.10;54.33
31044;BME280;17710;52.520;13.352;2022-08-19T05:47:10;100520.16;;;28.28;54.27
31044;BME280;17710;52.520;13.352;2022-08-19T05:49:38;100517.97;;;27.99;54.63
31044;BME280;17710;52.520;13.352;2022-08-19T05:52:07;100509.31;;;28.12;54.60
31044;BME280;17710;52.520;13.352;2022-08-19T05:54:34;100524.03;;;28.42;54.00
31044;BME280;17710;52.520;13.352;2022-08-19T05:57:05;100518.09;;;28.38;53.99
31044;BME280;17710;52.520;13.352;2022-08-19T05:59:35;100524.41;;;28.70;53.25
31044;BME280;17710;52.520;13.352;2022-08-19T06:02:03;100526.22;;;28.46;53.86
31044;BME280;17710;52.520;13.352;2022-08-19T06:04:29;100540.56;;;28.79;53.06
31044;BME280;17710;52.520;13.352;2022-08-19T06:06:57;100543.47;;;28.78;52.76
31044;BME280;17710;52.520;13.352;2022-08-19T06:09:24;100539.22;;;28.75;52.81
31044;BME280;17710;52.520;13.352;2022-08-19T06:11:52;100550.13;;;28.59;53.20
31044;BME280;17710;52.520;13.352;2022-08-19T06:14:21;100555.66;;;28.82;52.47
31044;BME280;17710;52.520;13.352;2022-08-19T06:16:49;100551.47;;;28.63;53.23
31044;BME280;17710;52.520;13.352;2022-08-19T06:19:20;100543.72;;;28.91;52.91
31044;BME280;17710;52.520;13.352;2022-08-19T06:21:51;100529.31;;;28.82;53.20
31044;BME280;17710;52.520;13.352;2022-08-19T06:24:21;100536.13;;;28.86;53.16
31044;BME280;17710;52.520;13.352;2022-08-19T06:26:50;100538.09;;;29.01;52.54
31044;BME280;17710;52.520;13.352;2022-08-19T06:29:18;100536.38;;;29.00;52.24
31044;BME280;17710;52.520;13.352;2022-08-19T06:31:47;100545.88;;;29.04;52.05
31044;BME280;17710;52.520;13.352;2022-08-19T06:34:15;100545.19;;;29.02;52.39
31044;BME280;17710;52.520;13.352;2022-08-19T06:36:43;100540.47;;;28.96;52.41
31044;BME280;17710;52.520;13.352;2022-08-19T06:39:13;100543.75;;;28.83;52.80
31044;BME280;17710;52.520;13.352;2022-08-19T06:41:43;100547.63;;;28.97;52.15
31044;BME280;17710;52.520;13.352;2022-08-19T06:44:10;100553.59;;;29.23;51.94
31044;BME280;17710;52.520;13.352;2022-08-19T06:46:37;100553.50;;;29.08;52.10
31044;BME280;17710;52.520;13.352;2022-08-19T06:49:04;100561.66;;;29.08;52.17
31044;BME280;17710;52.520;13.352;2022-08-19T06:51:30;100564.00;;;29.19;51.94
31044;BME280;17710;52.520;13.352;2022-08-19T06:53:59;100576.44;;;29.14;51.91
31044;BME280;17710;52.520;13.352;2022-08-19T06:56:29;100568.84;;;28.54;53.32
31044;BME280;17710;52.520;13.352;2022-08-19T06:59:00;100580.94;;;28.99;52.57
31044;BME280;17710;52.520;13.352;2022-08-19T07:01:26;100579.34;;;28.65;53.41
31044;BME280;17710;52.520;13.352;2022-08-19T07:03:55;100597.03;;;28.61;53.72
31044;BME280;17710;52.520;13.352;2022-08-19T07:06:22;100603.31;;;28.53;53.48
31044;BME280;17710;52.520;13.352;2022-08-19T07:08:49;100595.81;;;28.55;53.19
31044;BME280;17710;52.520;13.352;2022-08-19T07:11:18;100590.22;;;28.57;53.70
31044;BME280;17710;52.520;13.352;2022-08-19T07:13:46;100588.81;;;28.85;53.49
31044;BME280;17710;52.520;13.352;2022-08-19T07:16:16;100589.78;;;28.92;52.92
31044;BME280;17710;52.520;13.352;2022-08-19T07:18:44;100577.31;;;29.06;52.45
31044;BME280;17710;52.520;13.352;2022-08-19T07:21:13;100575.59;;;29.13;52.87
31044;BME280;17710;52.520;13.352;2022-08-19T07:23:40;100572.13;;;29.27;51.88
31044;BME280;17710;52.520;13.352;2022-08-19T07:26:08;100571.44;;;29.34;51.86
31044;BME280;17710;52.520;13.352;2022-08-19T07:28:35;100567.78;;;29.41;51.47
31044;BME280;17710;52.520;13.352;2022-08-19T07:31:05;100577.00;;;29.40;51.84
31044;BME280;17710;52.520;13.352;2022-08-19T07:33:33;100578.31;;;29.44;51.18
31044;BME280;17710;52.520;13.352;2022-08-19T07:36:09;100595.94;;;29.25;51.68
31044;BME280;17710;52.520;13.352;2022-08-19T07:38:41;100597.16;;;29.15;51.82
31044;BME280;17710;52.520;13.352;2022-08-19T07:41:09;100597.41;;;29.36;51.33
31044;BME280;17710;52.520;13.352;2022-08-19T07:43:37;100602.56;;;29.23;51.83
31044;BME280;17710;52.520;13.352;2022-08-19T07:46:04;100618.13;;;29.45;51.58
31044;BME280;17710;52.520;13.352;2022-08-19T07:48:31;100611.66;;;29.46;51.55
31044;BME280;17710;52.520;13.352;2022-08-19T07:51:00;100616.47;;;29.36;51.66
31044;BME280;17710;52.520;13.352;2022-08-19T07:53:28;100610.84;;;28.99;52.60
31044;BME280;17710;52.520;13.352;2022-08-19T07:55:55;100609.69;;;29.24;52.28
31044;BME280;17710;52.520;13.352;2022-08-19T07:58:25;100610.31;;;29.42;51.64
31044;BME280;17710;52.520;13.352;2022-08-19T08:00:52;100619.00;;;28.99;52.62
31044;BME280;17710;52.520;13.352;2022-08-19T08:03:20;100623.84;;;29.19;52.71
31044;BME280;17710;52.520;13.352;2022-08-19T08:06:09;100621.78;;;29.21;52.87
31044;BME280;17710;52.520;13.352;2022-08-19T08:08:54;100623.31;;;29.24;52.54
31044;BME280;17710;52.520;13.352;2022-08-19T08:11:44;100626.19;;;28.91;53.00
31044;BME280;17710;52.520;13.352;2022-08-19T08:14:15;100638.44;;;28.63;54.04
31044;BME280;17710;52.520;13.352;2022-08-19T08:16:42;100641.34;;;28.78;54.06
31044;BME280;17710;52.520;13.352;2022-08-19T08:19:09;100645.75;;;28.63;54.79
31044;BME280;17710;52.520;13.352;2022-08-19T08:21:37;100647.63;;;28.62;54.61
31044;BME280;17710;52.520;13.352;2022-08-19T08:24:04;100650.19;;;28.55;54.36
31044;BME280;17710;52.520;13.352;2022-08-19T08:26:30;100648.38;;;28.40;54.93
31044;BME280;17710;52.520;13.352;2022-08-19T08:28:57;100654.81;;;28.39;55.10
31044;BME280;17710;52.520;13.352;2022-08-19T08:31:23;100652.75;;;28.57;54.72
31044;BME280;17710;52.520;13.352;2022-08-19T08:33:50;100656.63;;;28.79;53.93
31044;BME280;17710;52.520;13.352;2022-08-19T08:36:17;100656.00;;;29.16;52.99
31044;BME280;17710;52.520;13.352;2022-08-19T08:38:45;100656.41;;;28.97;53.74
31044;BME280;17710;52.520;13.352;2022-08-19T08:41:18;100662.00;;;28.95;53.54
31044;BME280;17710;52.520;13.352;2022-08-19T08:43:49;100656.28;;;28.74;54.59
31044;BME280;17710;52.520;13.352;2022-08-19T08:46:20;100656.50;;;28.48;55.17
31044;BME280;17710;52.520;13.352;2022-08-19T08:48:52;100649.69;;;28.44;55.66
31044;BME280;17710;52.520;13.352;2022-08-19T08:51:22;100659.19;;;28.56;55.23
31044;BME280;17710;52.520;13.352;2022-08-19T08:53:53;100669.50;;;29.01;53.79
31044;BME280;17710;52.520;13.352;2022-08-19T08:56:20;100666.41;;;29.04;53.71
31044;BME280;17710;52.520;13.352;2022-08-19T08:58:54;100656.56;;;29.03;53.49
31044;BME280;17710;52.520;13.352;2022-08-19T09:01:23;100669.38;;;28.78;54.39
31044;BME280;17710;52.520;13.352;2022-08-19T09:03:49;100666.00;;;28.44;55.34
31044;BME280;17710;52.520;13.352;2022-08-19T09:06:24;100667.53;;;28.54;54.95
31044;BME280;17710;52.520;13.352;2022-08-19T09:08:59;100675.34;;;28.49;55.16
31044;BME280;17710;52.520;13.352;2022-08-19T09:11:37;100680.94;;;28.56;55.51
31044;BME280;17710;52.520;13.352;2022-08-19T09:14:12;100674.50;;;28.49;55.17
31044;BME280;17710;52.520;13.352;2022-08-19T09:16:41;100678.06;;;28.58;55.01
31044;BME280;17710;52.520;13.352;2022-08-19T09:19:08;100679.09;;;28.81;54.31
31044;BME280;17710;52.520;13.352;2022-08-19T09:21:36;100669.00;;;28.89;53.98
31044;BME280;17710;52.520;13.352;2022-08-19T09:24:06;100656.66;;;29.18;53.66
31044;BME280;17710;52.520;13.352;2022-08-19T09:26:33;100655.41;;;29.67;52.09
31044;BME280;17710;52.520;13.352;2022-08-19T09:29:00;100654.50;;;29.52;52.55
31044;BME280;17710;52.520;13.352;2022-08-19T09:31:28;100647.44;;;29.89;51.65
31044;BME280;17710;52.520;13.352;2022-08-19T09:33:55;100648.53;;;30.63;50.08
31044;BME280;17710;52.520;13.352;2022-08-19T09:36:24;100645.81;;;30.92;49.49
31044;BME280;17710;52.520;13.352;2022-08-19T09:38:52;100650.44;;;30.77;49.18
31044;BME280;17710;52.520;13.352;2022-08-19T09:41:22;100645.34;;;30.36;50.06
31044;BME280;17710;52.520;13.352;2022-08-19T09:43:50;100648.44;;;30.33;49.84
31044;BME280;17710;52.520;13.352;2022-08-19T09:46:18;100644.31;;;30.75;48.95
31044;BME280;17710;52.520;13.352;2022-08-19T09:48:46;100639.53;;;31.06;47.91
31044;BME280;17710;52.520;13.352;2022-08-19T09:51:20;100641.41;;;30.91;48.15
31044;BME280;17710;52.520;13.352;2022-08-19T09:53:48;100631.53;;;30.90;48.10
31044;BME280;17710;52.520;13.352;2022-08-19T09:56:17;100643.47;;;29.99;50.36
31044;BME280;17710;52.520;13.352;2022-08-19T09:58:45;100643.88;;;29.65;52.01
31044;BME280;17710;52.520;13.352;2022-08-19T10:01:16;100643.91;;;29.57;52.14
31044;BME280;17710;52.520;13.352;2022-08-19T10:03:47;100653.66;;;29.52;52.32
31044;BME280;17710;52.520;13.352;2022-08-19T10:06:14;100645.47;;;29.52;51.93
31044;BME280;17710;52.520;13.352;2022-08-19T10:08:41;100648.53;;;29.80;51.65
31044;BME280;17710;52.520;13.352;2022-08-19T10:11:08;100647.13;;;29.92;51.04
31044;BME280;17710;52.520;13.352;2022-08-19T10:13:35;100650.09;;;30.20;50.26
31044;BME280;17710;52.520;13.352;2022-08-19T10:16:05;100649.09;;;29.67;51.56
31044;BME280;17710;52.520;13.352;2022-08-19T10:18:33;100654.84;;;30.03;51.25
31044;BME280;17710;52.520;13.352;2022-08-19T10:21:05;100642.13;;;29.73;51.31
31044;BME280;17710;52.520;13.352;2022-08-19T10:23:34;100643.22;;;29.55;51.74
31044;BME280;17710;52.520;13.352;2022-08-19T10:26:02;100645.44;;;29.60;51.69
31044;BME280;17710;52.520;13.352;2022-08-19T10:28:30;100636.41;;;29.59;52.14
31044;BME280;17710;52.520;13.352;2022-08-19T10:30:57;100640.91;;;29.44;52.36
31044;BME280;17710;52.520;13.352;2022-08-19T10:33:25;100638.94;;;29.22;52.99
31044;BME280;17710;52.520;13.352;2022-08-19T10:35:59;100632.16;;;29.26;53.00
31044;BME280;17710;52.520;13.352;2022-08-19T10:38:26;100638.38;;;28.96;54.13
31044;BME280;17710;52.520;13.352;2022-08-19T10:40:56;100630.31;;;28.79;54.52
31044;BME280;17710;52.520;13.352;2022-08-19T10:43:23;100637.13;;;28.43;55.29
31044;BME280;17710;52.520;13.352;2022-08-19T10:45:53;100628.44;;;28.55;54.90
31044;BME280;17710;52.520;13.352;2022-08-19T10:48:22;100633.59;;;28.18;56.14
31044;BME280;17710;52.520;13.352;2022-08-19T10:50:49;100634.44;;;28.02;56.45
31044;BME280;17710;52.520;13.352;2022-08-19T10:53:34;100640.25;;;28.16;56.71
31044;BME280;17710;52.520;13.352;2022-08-19T10:56:00;100640.75;;;28.27;55.74
31044;BME280;17710;52.520;13.352;2022-08-19T10:58:44;100643.94;;;28.31;55.56
31044;BME280;17710;52.520;13.352;2022-08-19T11:01:11;100645.97;;;28.61;54.97
31044;BME280;17710;52.520;13.352;2022-08-19T11:03:37;100640.03;;;28.41;55.59
31044;BME280;17710;52.520;13.352;2022-08-19T11:06:07;100633.69;;;28.73;54.77
31044;BME280;17710;52.520;13.352;2022-08-19T11:08:35;100638.19;;;28.42;55.44
31044;BME280;17710;52.520;13.352;2022-08-19T11:11:04;100653.25;;;28.61;54.87
31044;BME280;17710;52.520;13.352;2022-08-19T11:13:34;100657.16;;;28.58;55.22
31044;BME280;17710;52.520;13.352;2022-08-19T11:16:05;100652.38;;;28.84;54.20
31044;BME280;17710;52.520;13.352;2022-08-19T11:18:34;100656.38;;;29.05;53.81
31044;BME280;17710;52.520;13.352;2022-08-19T11:21:11;100644.78;;;29.19;52.93
31044;BME280;17710;52.520;13.352;2022-08-19T11:23:43;100655.59;;;29.35;52.83
31044;BME280;17710;52.520;13.352;2022-08-19T11:26:19;100654.13;;;29.16;52.64
31044;BME280;17710;52.520;13.352;2022-08-19T11:28:46;100666.28;;;28.89;53.05
31044;BME280;17710;52.520;13.352;2022-08-19T11:31:15;100654.88;;;29.41;52.34
31044;BME280;17710;52.520;13.352;2022-08-19T11:33:42;100656.94;;;29.39;51.66
31044;BME280;17710;52.520;13.352;2022-08-19T11:36:10;100654.84;;;29.49;51.86
31044;BME280;17710;52.520;13.352;2022-08-19T11:38:36;100665.03;;;29.08;52.85
31044;BME280;17710;52.520;13.352;2022-08-19T11:41:05;100660.34;;;28.70;53.73
31044;BME280;17710;52.520;13.352;2022-08-19T11:43:32;100658.66;;;28.85;53.73
31044;BME280;17710;52.520;13.352;2022-08-19T11:45:59;100664.34;;;29.14;52.79
31044;BME280;17710;52.520;13.352;2022-08-19T11:48:26;100661.44;;;29.55;51.74
31044;BME280;17710;52.520;13.352;2022-08-19T11:50:53;100667.44;;;29.50;51.57
31044;BME280;17710;52.520;13.352;2022-08-19T11:53:25;100660.88;;;29.28;51.68
31044;BME280;17710;52.520;13.352;2022-08-19T11:55:53;100673.75;;;29.43;51.66
31044;BME280;17710;52.520;13.352;2022-08-19T11:58:21;100674.88;;;29.09;52.46
31044;BME280;17710;52.520;13.352;2022-08-19T12:00:47;100679.25;;;28.79;53.53
31044;BME280;17710;52.520;13.352;2022-08-19T12:03:14;100689.63;;;28.51;54.08
31044;BME280;17710;52.520;13.352;2022-08-19T12:05:41;100683.13;;;27.88;56.09
31044;BME280;17710;52.520;13.352;2022-08-19T12:08:08;100692.88;;;28.14;55.33
31044;BME280;17710;52.520;13.352;2022-08-19T12:10:36;100693.16;;;28.11;55.46
31044;BME280;17710;52.520;13.352;2022-08-19T12:13:02;100691.66;;;28.49;54.32
31044;BME280;17710;52.520;13.352;2022-08-19T12:15:29;100701.50;;;28.42;54.12
31044;BME280;17710;52.520;13.352;2022-08-19T12:17:56;100699.13;;;28.23;54.70
31044;BME280;17710;52.520;13.352;2022-08-19T12:20:24;100698.94;;;28.65;53.78
31044;BME280;17710;52.520;13.352;2022-08-19T12:22:51;100703.00;;;28.93;52.52
31044;BME280;17710;52.520;13.352;2022-08-19T12:25:18;100702.28;;;29.08;52.18
31044;BME280;17710;52.520;13.352;2022-08-19T12:27:47;100698.38;;;29.49;50.95
31044;BME280;17710;52.520;13.352;2022-08-19T12:30:15;100693.22;;;29.23;51.61
31044;BME280;17710;52.520;13.352;2022-08-19T12:32:41;100699.06;;;29.51;50.58
31044;BME280;17710;52.520;13.352;2022-08-19T12:35:09;100692.66;;;29.36;50.86
31044;BME280;17710;52.520;13.352;2022-08-19T12:37:37;100695.47;;;29.59;50.53
31044;BME280;17710;52.520;13.352;2022-08-19T12:40:05;100696.03;;;29.46;50.69
31044;BME280;17710;52.520;13.352;2022-08-19T12:42:32;100700.44;;;30.09;48.77
31044;BME280;17710;52.520;13.352;2022-08-19T12:45:00;100702.78;;;29.58;50.24
31044;BME280;17710;52.520;13.352;2022-08-19T12:47:26;100703.78;;;29.88;49.40